createdAt,value
2019-04-30T01:34:09.408Z,41.97
2019-04-30T01:36:43.415Z,38.43
2019-04-30T01:42:47.948Z,42.30
2019-04-30T01:46:06.202Z,43.60
2019-04-30T01:51:17.474Z,36.73
2019-04-30T02:17:29.138Z,35.47
2019-04-30T02:20:28.740Z,42.80
2019-04-30T03:26:49.858Z,39.07
2019-04-30T03:50:20.092Z,39.00
2019-04-30T04:32:23.589Z,34.87
2019-04-30T04:35:03.027Z,39.03
2019-04-30T04:37:31.347Z,40.83
2019-04-30T04:40:21.590Z,34.77
2019-04-30T04:43:00.322Z,40.67
2019-04-30T04:45:22.791Z,35.27
2019-04-30T04:47:55.844Z,34.53
2019-04-30T04:50:33.570Z,34.50
2019-04-30T04:53:11.252Z,35.40
2019-04-30T04:55:40.611Z,38.57
2019-04-30T05:01:40.786Z,36.07
2019-04-30T05:04:11.825Z,38.83
2019-04-30T05:06:39.999Z,44.13
2019-04-30T05:12:59.450Z,38.47
2019-04-30T05:24:31.530Z,40.37
2019-04-30T05:30:00.730Z,39.17
2019-04-30T05:35:36.009Z,37.93
2019-04-30T05:38:11.467Z,46.67
2019-04-30T05:40:42.495Z,43.27
2019-04-30T05:43:12.714Z,43.90
2019-04-30T05:45:41.421Z,48.93
2019-04-30T05:48:10.220Z,41.27
2019-04-30T05:50:41.486Z,45.47
2019-04-30T05:53:10.020Z,54.57
2019-04-30T05:55:39.554Z,52.23
2019-04-30T05:58:09.344Z,49.50
2019-04-30T06:00:40.060Z,45.30
2019-04-30T06:03:10.348Z,51.33
2019-04-30T06:05:39.378Z,54.30
2019-04-30T06:08:09.343Z,49.40
2019-04-30T06:10:39.692Z,58.97
2019-04-30T06:13:10.113Z,50.63
2019-04-30T06:15:40.462Z,58.00
2019-04-30T06:18:13.504Z,58.77
2019-04-30T06:20:39.435Z,55.67
2019-04-30T06:23:17.164Z,60.13
2019-04-30T06:25:57.464Z,57.70
2019-04-30T06:28:16.377Z,61.03
2019-04-30T06:30:45.270Z,65.43
2019-04-30T06:33:14.532Z,69.77
2019-04-30T06:35:43.420Z,68.80
2019-04-30T06:38:12.366Z,70.00
2019-04-30T06:40:42.911Z,65.53
2019-04-30T06:43:11.884Z,64.37
2019-04-30T06:45:40.776Z,61.90
2019-04-30T06:48:10.122Z,59.03
2019-04-30T06:50:39.352Z,55.80
2019-04-30T06:53:09.375Z,52.57
2019-04-30T06:55:39.175Z,56.97
2019-04-30T06:58:13.604Z,54.83
2019-04-30T07:00:40.072Z,55.60
2019-04-30T07:03:09.915Z,57.10
2019-04-30T07:05:40.089Z,58.43
2019-04-30T07:08:37.313Z,59.93
2019-04-30T07:11:15.214Z,58.67
2019-04-30T07:13:46.844Z,64.20
2019-04-30T07:16:18.849Z,55.37
2019-04-30T07:18:48.762Z,57.80
2019-04-30T07:21:19.527Z,54.67
2019-04-30T07:23:48.540Z,55.53
2019-04-30T07:26:19.806Z,58.83
2019-04-30T07:28:52.711Z,54.10
2019-04-30T07:31:19.252Z,53.13
2019-04-30T07:33:51.460Z,57.67
2019-04-30T07:36:19.561Z,54.73
2019-04-30T07:38:54.407Z,54.87
2019-04-30T07:41:19.055Z,47.27
2019-04-30T07:43:49.439Z,59.90
2019-04-30T07:46:20.035Z,50.53
2019-04-30T07:48:50.246Z,48.03
2019-04-30T07:51:21.034Z,43.13
2019-04-30T07:53:49.925Z,44.23
2019-04-30T07:56:25.686Z,47.23
2019-04-30T07:58:50.580Z,41.00
2019-04-30T08:01:19.803Z,42.50
2019-04-30T08:03:59.566Z,42.33
2019-04-30T08:06:31.109Z,37.53
2019-04-30T08:09:00.858Z,34.13
2019-04-30T08:11:34.268Z,36.77
2019-04-30T08:14:00.758Z,34.03
2019-04-30T08:16:29.690Z,33.37
2019-04-30T08:18:59.281Z,34.53
2019-04-30T08:21:28.755Z,37.60
2019-04-30T08:23:59.363Z,36.87
2019-04-30T08:26:28.984Z,35.00
2019-04-30T08:28:59.787Z,36.47
2019-04-30T08:31:29.186Z,37.77
2019-04-30T08:33:59.154Z,38.03
2019-04-30T08:36:29.765Z,42.20
2019-04-30T08:38:59.696Z,41.80
2019-04-30T08:41:29.292Z,40.20
2019-04-30T08:43:59.849Z,44.13
2019-04-30T08:46:28.744Z,38.80
2019-04-30T08:48:58.707Z,37.20
2019-04-30T08:51:28.936Z,35.97
2019-04-30T08:53:58.779Z,36.07
2019-04-30T08:56:34.066Z,38.87
2019-04-30T08:59:03.017Z,33.43
2019-04-30T09:01:31.686Z,35.60
2019-04-30T09:04:00.407Z,35.33
2019-04-30T09:06:30.161Z,33.50
2019-04-30T09:08:59.457Z,36.60
2019-04-30T09:11:34.090Z,36.20
2019-04-30T09:13:58.599Z,39.97
2019-04-30T09:16:29.327Z,40.20
2019-04-30T09:18:59.517Z,37.53
2019-04-30T09:21:29.998Z,38.93
2019-04-30T09:23:59.521Z,37.10
2019-04-30T09:26:31.054Z,37.97
2019-04-30T09:29:00.001Z,48.00
2019-04-30T09:31:29.563Z,49.70
2019-04-30T09:34:00.824Z,41.30
2019-04-30T09:36:29.355Z,42.33
2019-04-30T09:39:01.621Z,40.80
2019-04-30T09:41:30.477Z,45.53
2019-04-30T09:43:59.811Z,40.63
2019-04-30T09:46:29.943Z,43.67
2019-04-30T09:48:59.735Z,39.37
2019-04-30T09:51:30.386Z,36.37
2019-04-30T09:54:02.731Z,36.40
2019-04-30T09:56:29.506Z,41.93
2019-04-30T09:58:59.289Z,38.80
2019-04-30T10:01:27.977Z,42.77
2019-04-30T10:03:56.955Z,38.27
2019-04-30T10:06:37.151Z,42.07
2019-04-30T10:08:56.537Z,37.40
2019-04-30T10:11:29.804Z,39.57
2019-04-30T10:13:58.381Z,38.10
2019-04-30T10:16:37.306Z,39.10
2019-04-30T10:19:05.947Z,40.60
2019-04-30T10:21:34.559Z,39.97
2019-04-30T10:24:14.049Z,40.70
2019-04-30T10:26:33.648Z,43.73
2019-04-30T10:29:03.344Z,42.00
2019-04-30T10:31:31.883Z,45.00
2019-04-30T10:34:00.489Z,43.33
2019-04-30T10:36:29.607Z,43.73
2019-04-30T10:38:59.544Z,37.57
2019-04-30T10:41:28.868Z,42.13
2019-04-30T10:43:59.109Z,43.57
2019-04-30T10:46:28.015Z,43.03
2019-04-30T10:48:56.643Z,48.00
2019-04-30T10:51:25.181Z,49.13
2019-04-30T10:53:53.654Z,45.37
2019-04-30T10:56:22.291Z,50.83
2019-04-30T10:58:50.910Z,55.90
2019-04-30T11:01:19.635Z,53.77
2019-04-30T11:03:48.366Z,58.27
2019-04-30T11:06:16.967Z,60.67
2019-04-30T11:08:45.672Z,63.13
2019-04-30T11:11:14.288Z,61.23
2019-04-30T11:13:42.900Z,71.70
2019-04-30T11:16:14.763Z,66.97
2019-04-30T11:18:41.806Z,69.17
2019-04-30T11:21:10.746Z,62.50
2019-04-30T11:23:39.653Z,61.43
2019-04-30T11:26:09.074Z,59.17
2019-04-30T11:28:38.332Z,63.60
2019-04-30T11:31:24.061Z,60.53
2019-04-30T11:33:55.667Z,62.70
2019-04-30T11:36:25.839Z,60.77
2019-04-30T11:38:54.468Z,60.87
2019-04-30T11:41:31.019Z,63.80
2019-04-30T11:43:53.623Z,64.37
2019-04-30T11:46:28.719Z,62.47
2019-04-30T11:48:58.732Z,62.83
2019-04-30T11:51:29.355Z,66.70
2019-04-30T11:53:59.375Z,64.23
2019-04-30T11:56:28.169Z,66.13
2019-04-30T11:58:58.961Z,62.53
2019-04-30T12:01:29.359Z,64.83
2019-04-30T12:03:59.679Z,64.63
2019-04-30T12:06:28.599Z,58.53
2019-04-30T12:08:59.183Z,55.63
2019-04-30T12:11:32.361Z,48.20
2019-04-30T12:14:01.293Z,45.70
2019-04-30T12:16:30.091Z,49.90
2019-04-30T12:19:00.645Z,50.77
2019-04-30T12:21:29.432Z,50.63
2019-04-30T12:23:58.081Z,56.33
2019-04-30T12:26:28.791Z,51.00
2019-04-30T12:28:57.093Z,50.70
2019-04-30T12:31:25.755Z,58.27
2019-04-30T12:33:54.363Z,56.27
2019-04-30T12:36:22.857Z,53.17
2019-04-30T12:38:51.487Z,52.67
2019-04-30T12:41:20.146Z,52.30
2019-04-30T12:43:48.684Z,51.10
2019-04-30T12:46:18.967Z,54.83
2019-04-30T12:48:54.775Z,51.00
2019-04-30T12:51:27.563Z,49.07
2019-04-30T12:54:00.918Z,51.87
2019-04-30T12:56:36.114Z,49.30
2019-04-30T12:59:05.453Z,46.97
2019-04-30T13:01:34.355Z,45.23
2019-04-30T13:04:03.123Z,51.33
2019-04-30T13:06:31.997Z,53.00
2019-04-30T13:09:02.119Z,48.33
2019-04-30T13:11:34.573Z,51.67
2019-04-30T13:14:04.959Z,48.97
2019-04-30T13:16:34.043Z,46.67
2019-04-30T13:19:03.156Z,47.53
2019-04-30T13:21:31.834Z,49.10
2019-04-30T13:24:00.606Z,48.90
2019-04-30T13:26:29.309Z,57.53
2019-04-30T13:29:05.467Z,49.10
2019-04-30T13:31:34.320Z,48.83
2019-04-30T13:34:08.560Z,47.20
2019-04-30T13:36:40.696Z,45.93
2019-04-30T13:39:15.396Z,52.17
2019-04-30T13:42:00.849Z,45.70
2019-04-30T13:44:31.261Z,47.20
2019-04-30T13:46:59.972Z,49.53
2019-04-30T13:49:30.238Z,45.77
2019-04-30T13:51:58.915Z,49.87
2019-04-30T13:54:27.627Z,50.47
2019-04-30T13:56:56.351Z,53.57
2019-04-30T13:59:24.997Z,52.13
2019-04-30T14:01:53.783Z,47.27
2019-04-30T14:04:40.161Z,49.07
2019-04-30T14:07:28.425Z,51.73
2019-04-30T14:09:57.533Z,52.70
2019-04-30T14:12:26.103Z,51.93
2019-04-30T14:14:54.950Z,54.17
2019-04-30T14:17:23.745Z,57.33
2019-04-30T14:19:52.513Z,52.23
2019-04-30T14:22:21.291Z,58.03
2019-04-30T14:24:50.113Z,52.17
2019-04-30T14:27:18.870Z,57.03
2019-04-30T14:29:49.436Z,56.27
2019-04-30T14:32:18.617Z,53.03
2019-04-30T14:34:50.328Z,53.47
2019-04-30T14:37:17.993Z,55.13
2019-04-30T14:39:46.882Z,53.37
2019-04-30T14:42:20.168Z,57.13
2019-04-30T14:44:49.595Z,58.60
2019-04-30T14:47:22.394Z,57.03
2019-04-30T14:50:11.177Z,52.97
2019-04-30T14:52:56.634Z,57.23
2019-04-30T14:55:27.024Z,55.37
2019-04-30T14:58:13.672Z,50.60
2019-04-30T15:00:56.095Z,51.60
2019-04-30T15:03:26.642Z,53.07
2019-04-30T15:05:55.370Z,52.30
2019-04-30T15:08:23.919Z,48.43
2019-04-30T15:10:52.616Z,49.37
2019-04-30T15:13:21.303Z,57.80
2019-04-30T15:15:50.290Z,53.30
2019-04-30T15:18:19.263Z,49.67
2019-04-30T15:20:49.774Z,49.33
2019-04-30T15:23:25.893Z,48.63
2019-04-30T15:25:54.560Z,45.13
2019-04-30T15:28:23.122Z,51.37
2019-04-30T15:30:52.060Z,48.27
2019-04-30T15:33:25.451Z,47.33
2019-04-30T15:35:54.029Z,49.57
2019-04-30T15:38:24.289Z,53.70
2019-04-30T15:40:53.002Z,50.80
2019-04-30T15:43:23.301Z,48.57
2019-04-30T15:45:51.854Z,56.53
2019-04-30T15:48:24.724Z,47.77
2019-04-30T15:50:52.346Z,45.50
2019-04-30T15:53:20.891Z,45.90
2019-04-30T15:55:49.830Z,49.43
2019-04-30T15:58:20.015Z,44.67
2019-04-30T16:00:49.404Z,40.10
2019-04-30T16:03:19.932Z,41.97
2019-04-30T16:05:50.107Z,45.27
2019-04-30T16:08:20.248Z,51.33
2019-04-30T16:11:10.487Z,40.57
2019-04-30T16:13:49.951Z,44.43
2019-04-30T16:16:19.177Z,47.87
2019-04-30T16:18:49.595Z,44.27
2019-04-30T16:21:19.355Z,40.90
2019-04-30T16:23:48.738Z,45.53
2019-04-30T16:26:17.910Z,45.90
2019-04-30T16:28:46.570Z,42.97
2019-04-30T16:31:15.232Z,41.57
2019-04-30T16:33:43.862Z,47.80
2019-04-30T16:36:12.587Z,41.13
2019-04-30T16:38:41.224Z,41.43
2019-04-30T16:41:41.073Z,39.87
2019-04-30T16:44:09.279Z,46.03
2019-04-30T16:46:39.530Z,42.27
2019-04-30T16:49:10.539Z,39.87
2019-04-30T16:51:38.724Z,39.57
2019-04-30T16:54:08.614Z,38.57
2019-04-30T16:56:38.651Z,42.07
2019-04-30T16:59:09.157Z,35.93
2019-04-30T17:01:37.915Z,42.87
2019-04-30T17:04:19.086Z,38.73
2019-04-30T17:06:58.749Z,44.03
2019-04-30T17:09:44.064Z,40.27
2019-04-30T17:12:16.870Z,40.23
2019-04-30T17:14:45.556Z,39.40
2019-04-30T17:17:14.239Z,39.87
2019-04-30T17:19:42.863Z,40.93
2019-04-30T17:22:11.532Z,42.40
2019-04-30T17:24:40.147Z,37.07
2019-04-30T17:27:17.138Z,41.67
2019-04-30T17:29:39.074Z,39.63
2019-04-30T17:32:08.474Z,35.10
2019-04-30T17:34:38.933Z,38.63
2019-04-30T17:37:09.134Z,39.57
2019-04-30T17:39:40.818Z,37.70
2019-04-30T17:42:08.339Z,38.37
2019-04-30T17:44:37.035Z,35.43
2019-04-30T17:47:05.605Z,35.20
2019-04-30T17:49:34.299Z,34.63
2019-04-30T17:52:02.950Z,34.40
2019-04-30T17:54:31.586Z,38.77
2019-04-30T17:57:00.293Z,36.43
2019-04-30T17:59:28.886Z,35.37
2019-04-30T18:02:01.547Z,36.63
2019-04-30T18:04:30.187Z,37.67
2019-04-30T18:07:00.302Z,41.23
2019-04-30T18:09:29.275Z,39.83
2019-04-30T18:11:59.531Z,36.80
2019-04-30T18:14:28.626Z,38.77
2019-04-30T18:16:59.327Z,41.87
2019-04-30T18:19:45.787Z,35.17
2019-04-30T18:22:19.472Z,38.33
2019-04-30T18:25:02.175Z,33.93
2019-04-30T18:27:42.958Z,34.63
2019-04-30T18:30:03.065Z,35.77
2019-04-30T18:32:31.650Z,35.07
2019-04-30T18:35:00.247Z,37.03
2019-04-30T18:37:29.023Z,38.13
2019-04-30T18:40:00.029Z,38.00
2019-04-30T18:42:29.078Z,37.70
2019-04-30T18:44:57.928Z,43.77
2019-04-30T18:47:26.803Z,37.10
2019-04-30T18:49:55.624Z,38.43
2019-04-30T18:52:27.248Z,39.40
2019-04-30T18:54:55.990Z,39.07
2019-04-30T18:57:24.671Z,38.33
2019-04-30T18:59:53.493Z,41.23
2019-04-30T19:02:21.979Z,45.27
2019-04-30T19:04:50.625Z,39.83
2019-04-30T19:07:23.960Z,41.97
2019-04-30T19:09:59.902Z,44.87
2019-04-30T19:12:33.154Z,41.20
2019-04-30T19:15:06.400Z,45.50
2019-04-30T19:17:52.933Z,44.67
2019-04-30T19:20:23.327Z,40.20
2019-04-30T19:22:52.214Z,44.53
2019-04-30T19:25:20.782Z,42.63
2019-04-30T19:27:49.614Z,48.23
2019-04-30T19:30:19.327Z,46.07
2019-04-30T19:32:49.154Z,41.00
2019-04-30T19:35:18.759Z,43.97
2019-04-30T19:37:48.695Z,44.20
2019-04-30T19:40:19.028Z,47.53
2019-04-30T19:42:50.262Z,46.50
2019-04-30T19:45:18.176Z,41.10
2019-04-30T19:47:48.874Z,46.73
2019-04-30T19:50:19.141Z,46.67
2019-04-30T19:52:48.061Z,49.10
2019-04-30T19:55:20.455Z,47.37
2019-04-30T19:57:48.768Z,46.70
2019-04-30T20:00:18.091Z,47.23
2019-04-30T20:02:48.576Z,47.80
2019-04-30T20:05:19.255Z,50.00
2019-04-30T20:07:49.283Z,54.33
2019-04-30T20:10:19.430Z,52.47
2019-04-30T20:12:49.775Z,48.83
2019-04-30T20:15:21.779Z,49.00
2019-04-30T20:17:49.868Z,49.60
2019-04-30T20:20:18.942Z,51.43
2019-04-30T20:22:47.722Z,50.80
2019-04-30T20:25:16.440Z,49.07
2019-04-30T20:27:45.071Z,53.67
2019-04-30T20:30:14.341Z,51.03
2019-04-30T20:32:42.877Z,52.10
2019-04-30T20:35:12.002Z,50.67
2019-04-30T20:37:59.440Z,55.03
2019-04-30T20:40:42.674Z,54.90
2019-04-30T20:43:01.489Z,52.33
2019-04-30T20:45:30.034Z,60.30
2019-04-30T20:47:59.243Z,51.50
2019-04-30T20:50:27.983Z,61.30
2019-04-30T20:52:56.506Z,53.93
2019-04-30T20:55:40.792Z,61.47
2019-04-30T20:58:09.325Z,52.00
2019-04-30T21:00:37.968Z,58.43
2019-04-30T21:03:06.739Z,61.33
2019-04-30T21:05:35.467Z,59.03
2019-04-30T21:08:04.175Z,58.20
2019-04-30T21:10:32.832Z,57.67
2019-04-30T21:13:01.462Z,57.90
2019-04-30T21:15:30.086Z,60.43
2019-04-30T21:17:58.922Z,56.80
2019-04-30T21:20:28.878Z,56.47
2019-04-30T21:22:59.502Z,62.03
2019-04-30T21:25:29.193Z,57.37
2019-04-30T21:28:00.001Z,62.63
2019-04-30T21:30:28.557Z,58.33
2019-04-30T21:32:59.355Z,59.43
2019-04-30T21:35:32.640Z,61.07
2019-04-30T21:38:02.722Z,57.27
2019-04-30T21:40:31.377Z,64.13
2019-04-30T21:43:00.085Z,63.03
2019-04-30T21:45:29.197Z,62.83
2019-04-30T21:48:01.428Z,60.77
2019-04-30T21:50:29.743Z,61.37
2019-04-30T21:52:59.703Z,57.63
2019-04-30T21:55:29.647Z,62.33
2019-04-30T21:57:59.392Z,61.40
2019-04-30T22:00:35.475Z,59.67
2019-04-30T22:03:05.121Z,60.43
2019-04-30T22:05:33.718Z,60.47
2019-04-30T22:08:02.499Z,62.53
2019-04-30T22:10:31.291Z,64.63
2019-04-30T22:12:59.921Z,64.67
2019-04-30T22:15:28.697Z,63.67
2019-04-30T22:17:57.259Z,61.07
2019-04-30T22:20:25.852Z,62.23
2019-04-30T22:22:54.685Z,64.63
2019-04-30T22:25:23.673Z,64.97
2019-04-30T22:27:52.626Z,60.33
2019-04-30T22:30:21.952Z,60.80
2019-04-30T22:32:50.923Z,62.53
2019-04-30T22:35:21.517Z,63.30
2019-04-30T22:37:52.101Z,66.10
2019-04-30T22:40:20.969Z,63.20
2019-04-30T22:42:50.020Z,61.47
2019-04-30T22:45:21.455Z,64.20
2019-04-30T22:47:50.463Z,61.77
2019-04-30T22:50:19.451Z,63.80
2019-04-30T22:52:48.275Z,63.60
2019-04-30T22:55:17.253Z,61.13
2019-04-30T22:57:46.261Z,64.37
2019-04-30T23:00:17.929Z,60.23
2019-04-30T23:02:48.442Z,61.07
2019-04-30T23:05:17.620Z,63.43
2019-04-30T23:07:46.515Z,58.77
2019-04-30T23:10:16.960Z,65.00
2019-04-30T23:12:45.847Z,66.17
2019-04-30T23:15:17.287Z,60.43
2019-04-30T23:17:46.143Z,60.70
2019-04-30T23:20:15.231Z,57.47
2019-04-30T23:22:44.155Z,61.90
2019-04-30T23:25:13.605Z,64.97
2019-04-30T23:27:42.393Z,65.23
2019-04-30T23:30:11.931Z,62.07
2019-04-30T23:32:40.971Z,63.13
2019-04-30T23:35:09.995Z,61.00
2019-04-30T23:38:07.029Z,56.47
2019-04-30T23:40:53.365Z,63.60
2019-04-30T23:43:22.475Z,60.27
2019-04-30T23:45:52.735Z,54.53
2019-04-30T23:50:57.038Z,63.03
2019-04-30T23:53:33.050Z,64.97
2019-04-30T23:56:04.067Z,61.87
2019-04-30T23:58:50.510Z,58.13
